메인 페이지
METAR-TAF:

METAR-TAF

공항 :

Lydd, 잉글랜드

위도: 50-57N, 경도: 000-56E, 고도: 3m

현재 날씨관측

예보는 35분 전, 17:50시(UTC)에 발표되었습니다.
남서7kt
온도 20°C
습도 83%
기압 1020 hPa
시정 10km 이상

METAR: EGMD 231750Z AUTO 22007KT 9999 SCT035/// BKN040/// 20/17 Q1020

시각: 19:25 (18:25 UTC)

예보

예보는 1 시간 25분 전, 17:00시(UTC)에 발표되었습니다.
예보 대상 시간: 23일 18시부터 24일 03시까지 (UTC)
남남서7kt
시정 10km 이상
고도 3500ft 상공 구름 보통
확률 30% :
일시적
23일 19시부터 23일 21시까지 (UTC)
시정: 8000m
전환 중
23일 21시부터 23일 24시까지 (UTC)
동북동10kt

TAF: EGMD 231700Z 2318/2403 20007KT 9999 SCT035 PROB30 TEMPO 2319/2321 8000 BECMG 2321/2324 07010KT

4,000개 이상의 공항 관측 자료 및 예보 (METAR 및 TAF 보고).

지도상에서 검색 가능한 기상관측소가 노란 점과 빨간 점으로 표시되어 있습니다.

기상관측소 명을 보려면 표시 위로 마우스를 이동하세요.

날씨 관측과 예보를 보려면 클릭하세요.

지도 변경 : 확대하려면 엑스 표시가 있는 녹색 버튼, 축소하려면 빼기 표시가 있는 녹색 버튼, 다음 페이지의 지도를 보려면 녹색 화살표를 클릭하세요.


METAR-TAF: